sensor_id;sensor_type;location;lat;lon;timestamp;temperature;humidity
13332;DHT22;6735;51.456;12.626;2023-05-17T00:02:19;7.40;69.30
13332;DHT22;6735;51.456;12.626;2023-05-17T00:04:44;7.40;69.60
13332;DHT22;6735;51.456;12.626;2023-05-17T00:07:10;7.40;69.30
13332;DHT22;6735;51.456;12.626;2023-05-17T00:09:36;7.30;69.60
13332;DHT22;6735;51.456;12.626;2023-05-17T00:12:01;7.40;70.00
13332;DHT22;6735;51.456;12.626;2023-05-17T00:14:27;7.40;69.70
13332;DHT22;6735;51.456;12.626;2023-05-17T00:16:52;7.30;70.30
13332;DHT22;6735;51.456;12.626;2023-05-17T00:19:18;7.40;70.40
13332;DHT22;6735;51.456;12.626;2023-05-17T00:21:43;7.40;70.50
13332;DHT22;6735;51.456;12.626;2023-05-17T00:24:09;7.50;70.50
13332;DHT22;6735;51.456;12.626;2023-05-17T00:26:35;7.50;70.70
13332;DHT22;6735;51.456;12.626;2023-05-17T00:29:00;7.50;70.30
13332;DHT22;6735;51.456;12.626;2023-05-17T00:31:26;7.50;70.50
13332;DHT22;6735;51.456;12.626;2023-05-17T00:33:51;7.50;70.80
13332;DHT22;6735;51.456;12.626;2023-05-17T00:36:17;7.50;71.00
13332;DHT22;6735;51.456;12.626;2023-05-17T00:38:42;7.40;71.00
13332;DHT22;6735;51.456;12.626;2023-05-17T00:41:08;7.40;70.90
13332;DHT22;6735;51.456;12.626;2023-05-17T00:43:33;7.40;71.30
13332;DHT22;6735;51.456;12.626;2023-05-17T00:45:59;7.40;71.20
13332;DHT22;6735;51.456;12.626;2023-05-17T00:48:24;7.40;71.30
13332;DHT22;6735;51.456;12.626;2023-05-17T00:50:54;7.30;71.50
13332;DHT22;6735;51.456;12.626;2023-05-17T00:53:20;7.30;71.50
13332;DHT22;6735;51.456;12.626;2023-05-17T00:55:46;7.20;71.90
13332;DHT22;6735;51.456;12.626;2023-05-17T00:58:13;7.20;71.90
13332;DHT22;6735;51.456;12.626;2023-05-17T01:00:39;7.10;72.20
13332;DHT22;6735;51.456;12.626;2023-05-17T01:03:05;7.10;72.30
13332;DHT22;6735;51.456;12.626;2023-05-17T01:05:30;7.10;72.30
13332;DHT22;6735;51.456;12.626;2023-05-17T01:07:56;7.10;72.30
13332;DHT22;6735;51.456;12.626;2023-05-17T01:10:35;7.00;72.60
13332;DHT22;6735;51.456;12.626;2023-05-17T01:13:08;6.90;72.00
13332;DHT22;6735;51.456;12.626;2023-05-17T01:15:39;6.90;72.60
13332;DHT22;6735;51.456;12.626;2023-05-17T01:18:26;6.80;72.90
13332;DHT22;6735;51.456;12.626;2023-05-17T01:20:53;6.90;72.70
13332;DHT22;6735;51.456;12.626;2023-05-17T01:23:47;6.80;73.00
13332;DHT22;6735;51.456;12.626;2023-05-17T01:26:18;6.80;72.80
13332;DHT22;6735;51.456;12.626;2023-05-17T01:28:48;6.70;73.20
13332;DHT22;6735;51.456;12.626;2023-05-17T01:31:16;6.70;73.30
13332;DHT22;6735;51.456;12.626;2023-05-17T01:33:42;6.70;73.30
13332;DHT22;6735;51.456;12.626;2023-05-17T01:36:08;6.60;73.40
13332;DHT22;6735;51.456;12.626;2023-05-17T01:38:34;6.60;73.60
13332;DHT22;6735;51.456;12.626;2023-05-17T01:41:22;6.60;73.60
13332;DHT22;6735;51.456;12.626;2023-05-17T01:44:01;6.60;73.50
13332;DHT22;6735;51.456;12.626;2023-05-17T01:46:38;6.50;73.70
13332;DHT22;6735;51.456;12.626;2023-05-17T01:49:15;6.50;73.80
13332;DHT22;6735;51.456;12.626;2023-05-17T01:54:28;6.40;74.00
13332;DHT22;6735;51.456;12.626;2023-05-17T01:56:57;6.40;74.10
13332;DHT22;6735;51.456;12.626;2023-05-17T01:59:23;6.40;74.20
13332;DHT22;6735;51.456;12.626;2023-05-17T02:01:52;6.40;74.60
13332;DHT22;6735;51.456;12.626;2023-05-17T02:04:19;6.30;74.60
13332;DHT22;6735;51.456;12.626;2023-05-17T02:06:45;6.30;74.90
13332;DHT22;6735;51.456;12.626;2023-05-17T02:09:11;6.30;75.00
13332;DHT22;6735;51.456;12.626;2023-05-17T02:11:36;6.30;75.10
13332;DHT22;6735;51.456;12.626;2023-05-17T02:14:02;6.30;74.80
13332;DHT22;6735;51.456;12.626;2023-05-17T02:16:27;6.20;75.00
13332;DHT22;6735;51.456;12.626;2023-05-17T02:18:52;6.20;75.20
13332;DHT22;6735;51.456;12.626;2023-05-17T02:21:18;6.20;75.20
13332;DHT22;6735;51.456;12.626;2023-05-17T02:23:43;6.20;75.50
13332;DHT22;6735;51.456;12.626;2023-05-17T02:26:09;6.20;75.50
13332;DHT22;6735;51.456;12.626;2023-05-17T02:28:34;6.10;75.60
13332;DHT22;6735;51.456;12.626;2023-05-17T02:31:00;6.10;76.00
13332;DHT22;6735;51.456;12.626;2023-05-17T02:33:25;6.10;76.00
13332;DHT22;6735;51.456;12.626;2023-05-17T02:35:51;6.10;76.00
13332;DHT22;6735;51.456;12.626;2023-05-17T02:38:16;6.10;76.10
13332;DHT22;6735;51.456;12.626;2023-05-17T02:40:42;6.00;76.10
13332;DHT22;6735;51.456;12.626;2023-05-17T02:43:07;6.00;76.30
13332;DHT22;6735;51.456;12.626;2023-05-17T02:45:33;6.00;76.40
13332;DHT22;6735;51.456;12.626;2023-05-17T02:47:58;6.00;76.50
13332;DHT22;6735;51.456;12.626;2023-05-17T02:50:24;6.00;76.40
13332;DHT22;6735;51.456;12.626;2023-05-17T02:52:49;6.00;76.60
13332;DHT22;6735;51.456;12.626;2023-05-17T02:55:15;5.90;76.80
13332;DHT22;6735;51.456;12.626;2023-05-17T02:57:40;5.90;77.00
13332;DHT22;6735;51.456;12.626;2023-05-17T03:00:06;5.90;76.90
13332;DHT22;6735;51.456;12.626;2023-05-17T03:02:33;5.90;77.20
13332;DHT22;6735;51.456;12.626;2023-05-17T03:04:58;5.90;77.30
13332;DHT22;6735;51.456;12.626;2023-05-17T03:07:24;5.80;77.40
13332;DHT22;6735;51.456;12.626;2023-05-17T03:09:49;5.90;77.30
13332;DHT22;6735;51.456;12.626;2023-05-17T03:12:15;5.90;77.40
13332;DHT22;6735;51.456;12.626;2023-05-17T03:14:40;5.80;77.40
13332;DHT22;6735;51.456;12.626;2023-05-17T03:17:06;5.80;77.50
13332;DHT22;6735;51.456;12.626;2023-05-17T03:19:31;5.80;77.50
13332;DHT22;6735;51.456;12.626;2023-05-17T03:21:57;5.80;77.50
13332;DHT22;6735;51.456;12.626;2023-05-17T03:24:22;5.80;77.70
13332;DHT22;6735;51.456;12.626;2023-05-17T03:26:47;5.80;77.70
13332;DHT22;6735;51.456;12.626;2023-05-17T03:29:13;5.80;77.70
13332;DHT22;6735;51.456;12.626;2023-05-17T03:31:38;5.80;77.80
13332;DHT22;6735;51.456;12.626;2023-05-17T03:34:04;5.80;78.00
13332;DHT22;6735;51.456;12.626;2023-05-17T03:36:30;5.90;78.10
13332;DHT22;6735;51.456;12.626;2023-05-17T03:38:55;5.90;78.20
13332;DHT22;6735;51.456;12.626;2023-05-17T03:41:21;5.90;78.10
13332;DHT22;6735;51.456;12.626;2023-05-17T03:43:47;5.90;78.20
13332;DHT22;6735;51.456;12.626;2023-05-17T03:46:12;6.00;78.30
13332;DHT22;6735;51.456;12.626;2023-05-17T03:48:38;6.00;78.50
13332;DHT22;6735;51.456;12.626;2023-05-17T03:51:04;6.10;78.30
13332;DHT22;6735;51.456;12.626;2023-05-17T03:53:30;6.10;78.50
13332;DHT22;6735;51.456;12.626;2023-05-17T03:55:55;6.10;78.20
13332;DHT22;6735;51.456;12.626;2023-05-17T03:58:21;6.10;78.50
13332;DHT22;6735;51.456;12.626;2023-05-17T04:00:46;6.10;78.50
13332;DHT22;6735;51.456;12.626;2023-05-17T04:03:11;6.10;78.30
13332;DHT22;6735;51.456;12.626;2023-05-17T04:05:38;6.20;78.60
13332;DHT22;6735;51.456;12.626;2023-05-17T04:08:05;6.20;78.60
13332;DHT22;6735;51.456;12.626;2023-05-17T04:10:31;6.30;78.70
13332;DHT22;6735;51.456;12.626;2023-05-17T04:12:56;6.40;78.40
13332;DHT22;6735;51.456;12.626;2023-05-17T04:15:22;6.40;78.50
13332;DHT22;6735;51.456;12.626;2023-05-17T04:17:47;6.50;78.60
13332;DHT22;6735;51.456;12.626;2023-05-17T04:20:13;6.60;78.60
13332;DHT22;6735;51.456;12.626;2023-05-17T04:22:38;6.60;79.00
13332;DHT22;6735;51.456;12.626;2023-05-17T04:25:04;6.70;78.80
13332;DHT22;6735;51.456;12.626;2023-05-17T04:27:30;6.80;79.00
13332;DHT22;6735;51.456;12.626;2023-05-17T04:29:56;7.00;78.90
13332;DHT22;6735;51.456;12.626;2023-05-17T04:32:21;7.10;78.50
13332;DHT22;6735;51.456;12.626;2023-05-17T04:34:47;7.20;78.70
13332;DHT22;6735;51.456;12.626;2023-05-17T04:37:12;7.40;78.30
13332;DHT22;6735;51.456;12.626;2023-05-17T04:39:38;7.50;78.30
13332;DHT22;6735;51.456;12.626;2023-05-17T04:42:04;7.70;78.10
13332;DHT22;6735;51.456;12.626;2023-05-17T04:44:30;7.80;77.80
13332;DHT22;6735;51.456;12.626;2023-05-17T04:46:55;8.00;77.50
13332;DHT22;6735;51.456;12.626;2023-05-17T04:49:21;8.30;77.40
13332;DHT22;6735;51.456;12.626;2023-05-17T04:51:46;9.60;75.30
13332;DHT22;6735;51.456;12.626;2023-05-17T04:54:12;10.90;71.40
13332;DHT22;6735;51.456;12.626;2023-05-17T04:56:37;12.10;68.30
13332;DHT22;6735;51.456;12.626;2023-05-17T04:59:03;13.20;65.20
13332;DHT22;6735;51.456;12.626;2023-05-17T05:01:28;14.00;63.20
13332;DHT22;6735;51.456;12.626;2023-05-17T05:03:57;14.70;61.60
13332;DHT22;6735;51.456;12.626;2023-05-17T05:06:23;15.30;59.80
13332;DHT22;6735;51.456;12.626;2023-05-17T05:08:48;15.80;58.90
13332;DHT22;6735;51.456;12.626;2023-05-17T05:11:14;16.40;56.90
13332;DHT22;6735;51.456;12.626;2023-05-17T05:13:39;16.90;55.80
13332;DHT22;6735;51.456;12.626;2023-05-17T05:16:06;17.30;54.20
13332;DHT22;6735;51.456;12.626;2023-05-17T05:18:32;17.50;53.60
13332;DHT22;6735;51.456;12.626;2023-05-17T05:20:58;18.10;53.20
13332;DHT22;6735;51.456;12.626;2023-05-17T05:23:24;18.20;52.50
13332;DHT22;6735;51.456;12.626;2023-05-17T05:25:49;18.70;51.60
13332;DHT22;6735;51.456;12.626;2023-05-17T05:28:15;18.20;49.50
13332;DHT22;6735;51.456;12.626;2023-05-17T05:30:40;16.80;54.00
13332;DHT22;6735;51.456;12.626;2023-05-17T05:33:06;16.20;55.00
13332;DHT22;6735;51.456;12.626;2023-05-17T05:35:31;15.90;55.90
13332;DHT22;6735;51.456;12.626;2023-05-17T05:37:57;16.00;55.40
13332;DHT22;6735;51.456;12.626;2023-05-17T05:40:23;16.90;53.40
13332;DHT22;6735;51.456;12.626;2023-05-17T05:42:49;17.40;51.70
13332;DHT22;6735;51.456;12.626;2023-05-17T05:45:14;18.10;50.30
13332;DHT22;6735;51.456;12.626;2023-05-17T05:47:40;19.00;48.60
13332;DHT22;6735;51.456;12.626;2023-05-17T05:50:06;19.20;47.90
13332;DHT22;6735;51.456;12.626;2023-05-17T05:52:32;19.00;48.00
13332;DHT22;6735;51.456;12.626;2023-05-17T05:54:58;19.30;47.20
13332;DHT22;6735;51.456;12.626;2023-05-17T05:57:23;18.70;47.90
13332;DHT22;6735;51.456;12.626;2023-05-17T05:59:49;18.70;47.20
13332;DHT22;6735;51.456;12.626;2023-05-17T06:02:14;19.00;47.20
13332;DHT22;6735;51.456;12.626;2023-05-17T06:04:41;19.20;47.10
13332;DHT22;6735;51.456;12.626;2023-05-17T06:07:06;18.20;48.60
13332;DHT22;6735;51.456;12.626;2023-05-17T06:09:32;17.70;49.50
13332;DHT22;6735;51.456;12.626;2023-05-17T06:11:57;16.90;50.70
13332;DHT22;6735;51.456;12.626;2023-05-17T06:14:23;16.10;52.40
13332;DHT22;6735;51.456;12.626;2023-05-17T06:16:48;16.90;50.50
13332;DHT22;6735;51.456;12.626;2023-05-17T06:19:14;17.50;49.40
13332;DHT22;6735;51.456;12.626;2023-05-17T06:21:39;17.90;48.50
13332;DHT22;6735;51.456;12.626;2023-05-17T06:24:06;18.20;47.90
13332;DHT22;6735;51.456;12.626;2023-05-17T06:26:31;18.20;47.90
13332;DHT22;6735;51.456;12.626;2023-05-17T06:28:57;18.40;46.90
13332;DHT22;6735;51.456;12.626;2023-05-17T06:31:22;17.10;49.80
13332;DHT22;6735;51.456;12.626;2023-05-17T06:33:48;15.80;52.20
13332;DHT22;6735;51.456;12.626;2023-05-17T06:36:13;15.80;52.40
13332;DHT22;6735;51.456;12.626;2023-05-17T06:38:39;15.10;53.80
13332;DHT22;6735;51.456;12.626;2023-05-17T06:41:04;15.00;54.20
13332;DHT22;6735;51.456;12.626;2023-05-17T06:43:30;15.50;53.30
13332;DHT22;6735;51.456;12.626;2023-05-17T06:45:55;15.70;52.90
13332;DHT22;6735;51.456;12.626;2023-05-17T06:48:21;16.10;52.30
13332;DHT22;6735;51.456;12.626;2023-05-17T06:50:46;16.50;51.10
13332;DHT22;6735;51.456;12.626;2023-05-17T06:53:12;16.20;51.10
13332;DHT22;6735;51.456;12.626;2023-05-17T06:55:37;16.10;52.20
13332;DHT22;6735;51.456;12.626;2023-05-17T06:58:03;15.50;52.70
13332;DHT22;6735;51.456;12.626;2023-05-17T07:00:28;15.50;53.10
13332;DHT22;6735;51.456;12.626;2023-05-17T07:02:54;15.30;53.10
13332;DHT22;6735;51.456;12.626;2023-05-17T07:05:20;15.10;53.50
13332;DHT22;6735;51.456;12.626;2023-05-17T07:07:46;14.40;54.60
13332;DHT22;6735;51.456;12.626;2023-05-17T07:10:11;14.10;54.90
13332;DHT22;6735;51.456;12.626;2023-05-17T07:12:37;14.00;54.50
13332;DHT22;6735;51.456;12.626;2023-05-17T07:15:03;14.50;53.80
13332;DHT22;6735;51.456;12.626;2023-05-17T07:17:29;14.80;53.30
13332;DHT22;6735;51.456;12.626;2023-05-17T07:19:54;15.00;52.00
13332;DHT22;6735;51.456;12.626;2023-05-17T07:22:20;15.30;51.30
13332;DHT22;6735;51.456;12.626;2023-05-17T07:24:45;14.80;51.50
13332;DHT22;6735;51.456;12.626;2023-05-17T07:27:11;14.20;53.20
13332;DHT22;6735;51.456;12.626;2023-05-17T07:29:36;14.20;53.30
13332;DHT22;6735;51.456;12.626;2023-05-17T07:32:02;14.70;52.70
13332;DHT22;6735;51.456;12.626;2023-05-17T07:34:29;15.00;51.90
13332;DHT22;6735;51.456;12.626;2023-05-17T07:36:55;14.80;52.20
13332;DHT22;6735;51.456;12.626;2023-05-17T07:39:20;14.70;51.80
13332;DHT22;6735;51.456;12.626;2023-05-17T07:41:46;14.60;51.10
13332;DHT22;6735;51.456;12.626;2023-05-17T07:44:11;14.50;50.40
13332;DHT22;6735;51.456;12.626;2023-05-17T07:46:36;14.60;50.40
13332;DHT22;6735;51.456;12.626;2023-05-17T07:49:02;14.60;50.40
13332;DHT22;6735;51.456;12.626;2023-05-17T07:51:27;14.10;51.40
13332;DHT22;6735;51.456;12.626;2023-05-17T07:53:53;14.00;51.80
13332;DHT22;6735;51.456;12.626;2023-05-17T07:56:18;14.60;51.20
13332;DHT22;6735;51.456;12.626;2023-05-17T07:58:44;15.10;49.80
13332;DHT22;6735;51.456;12.626;2023-05-17T08:01:09;14.70;50.00
13332;DHT22;6735;51.456;12.626;2023-05-17T08:03:35;14.50;50.20
13332;DHT22;6735;51.456;12.626;2023-05-17T08:06:01;14.70;49.70
13332;DHT22;6735;51.456;12.626;2023-05-17T08:08:26;14.90;48.70
13332;DHT22;6735;51.456;12.626;2023-05-17T08:10:52;15.60;47.60
13332;DHT22;6735;51.456;12.626;2023-05-17T08:13:17;16.10;46.10
13332;DHT22;6735;51.456;12.626;2023-05-17T08:15:43;16.20;45.20
13332;DHT22;6735;51.456;12.626;2023-05-17T08:18:08;15.90;45.10
13332;DHT22;6735;51.456;12.626;2023-05-17T08:20:34;15.70;46.00
13332;DHT22;6735;51.456;12.626;2023-05-17T08:23:00;15.50;45.70
13332;DHT22;6735;51.456;12.626;2023-05-17T08:25:25;15.20;45.90
13332;DHT22;6735;51.456;12.626;2023-05-17T08:27:51;15.30;45.70
13332;DHT22;6735;51.456;12.626;2023-05-17T08:30:16;15.80;45.00
13332;DHT22;6735;51.456;12.626;2023-05-17T08:32:42;16.00;44.40
13332;DHT22;6735;51.456;12.626;2023-05-17T08:35:09;15.80;44.50
13332;DHT22;6735;51.456;12.626;2023-05-17T08:37:34;15.50;44.30
13332;DHT22;6735;51.456;12.626;2023-05-17T08:40:00;15.20;45.20
13332;DHT22;6735;51.456;12.626;2023-05-17T08:42:26;15.20;45.30
13332;DHT22;6735;51.456;12.626;2023-05-17T08:44:54;15.10;45.50
13332;DHT22;6735;51.456;12.626;2023-05-17T08:47:20;14.90;45.90
13332;DHT22;6735;51.456;12.626;2023-05-17T08:49:56;14.60;46.80
13332;DHT22;6735;51.456;12.626;2023-05-17T08:52:27;14.50;46.40
13332;DHT22;6735;51.456;12.626;2023-05-17T08:54:53;14.30;46.90
13332;DHT22;6735;51.456;12.626;2023-05-17T08:57:20;14.60;46.70
13332;DHT22;6735;51.456;12.626;2023-05-17T08:59:48;14.70;46.40
13332;DHT22;6735;51.456;12.626;2023-05-17T09:02:14;14.50;45.80
13332;DHT22;6735;51.456;12.626;2023-05-17T09:04:40;15.00;45.60
13332;DHT22;6735;51.456;12.626;2023-05-17T09:07:07;15.30;44.60
13332;DHT22;6735;51.456;12.626;2023-05-17T09:09:32;15.80;44.00
13332;DHT22;6735;51.456;12.626;2023-05-17T09:11:58;16.20;42.80
13332;DHT22;6735;51.456;12.626;2023-05-17T09:14:24;16.40;42.60
13332;DHT22;6735;51.456;12.626;2023-05-17T09:16:55;16.10;42.50
13332;DHT22;6735;51.456;12.626;2023-05-17T09:19:22;15.80;42.30
13332;DHT22;6735;51.456;12.626;2023-05-17T09:21:48;15.30;43.30
13332;DHT22;6735;51.456;12.626;2023-05-17T09:24:13;15.40;43.40
13332;DHT22;6735;51.456;12.626;2023-05-17T09:26:42;15.20;43.30
13332;DHT22;6735;51.456;12.626;2023-05-17T09:29:10;15.20;43.70
13332;DHT22;6735;51.456;12.626;2023-05-17T09:31:36;15.70;42.70
13332;DHT22;6735;51.456;12.626;2023-05-17T09:34:01;16.10;42.00
13332;DHT22;6735;51.456;12.626;2023-05-17T09:36:27;16.80;40.90
13332;DHT22;6735;51.456;12.626;2023-05-17T09:41:30;17.30;39.70
13332;DHT22;6735;51.456;12.626;2023-05-17T09:44:00;17.10;39.30
13332;DHT22;6735;51.456;12.626;2023-05-17T09:46:27;16.60;40.60
13332;DHT22;6735;51.456;12.626;2023-05-17T09:48:53;16.30;40.40
13332;DHT22;6735;51.456;12.626;2023-05-17T09:51:39;16.10;40.80
13332;DHT22;6735;51.456;12.626;2023-05-17T09:54:06;16.20;40.20
13332;DHT22;6735;51.456;12.626;2023-05-17T09:56:32;16.70;40.00
13332;DHT22;6735;51.456;12.626;2023-05-17T09:59:03;17.10;39.70
13332;DHT22;6735;51.456;12.626;2023-05-17T10:01:36;17.20;39.30
13332;DHT22;6735;51.456;12.626;2023-05-17T10:04:05;17.30;39.80
13332;DHT22;6735;51.456;12.626;2023-05-17T10:06:33;17.80;38.40
13332;DHT22;6735;51.456;12.626;2023-05-17T10:09:00;17.90;38.00
13332;DHT22;6735;51.456;12.626;2023-05-17T10:11:29;18.20;37.80
13332;DHT22;6735;51.456;12.626;2023-05-17T10:14:12;17.80;38.40
13332;DHT22;6735;51.456;12.626;2023-05-17T10:16:39;17.90;38.00
13332;DHT22;6735;51.456;12.626;2023-05-17T10:19:06;18.30;37.20
13332;DHT22;6735;51.456;12.626;2023-05-17T10:21:32;18.40;37.00
13332;DHT22;6735;51.456;12.626;2023-05-17T10:24:02;18.50;36.30
13332;DHT22;6735;51.456;12.626;2023-05-17T10:26:29;18.50;37.20
13332;DHT22;6735;51.456;12.626;2023-05-17T10:28:59;17.90;36.30
13332;DHT22;6735;51.456;12.626;2023-05-17T10:31:28;17.60;37.30
13332;DHT22;6735;51.456;12.626;2023-05-17T10:33:54;17.60;37.60
13332;DHT22;6735;51.456;12.626;2023-05-17T10:36:20;17.40;37.70
13332;DHT22;6735;51.456;12.626;2023-05-17T10:38:47;17.40;37.70
13332;DHT22;6735;51.456;12.626;2023-05-17T10:41:14;17.90;36.90
13332;DHT22;6735;51.456;12.626;2023-05-17T10:43:42;18.20;36.70
13332;DHT22;6735;51.456;12.626;2023-05-17T10:46:14;17.60;38.00
13332;DHT22;6735;51.456;12.626;2023-05-17T10:48:41;17.30;39.10
13332;DHT22;6735;51.456;12.626;2023-05-17T10:51:06;17.60;39.00
13332;DHT22;6735;51.456;12.626;2023-05-17T10:53:32;17.40;38.90
13332;DHT22;6735;51.456;12.626;2023-05-17T10:55:58;17.60;38.90
13332;DHT22;6735;51.456;12.626;2023-05-17T10:58:25;17.60;38.50
13332;DHT22;6735;51.456;12.626;2023-05-17T11:00:52;17.50;38.20
13332;DHT22;6735;51.456;12.626;2023-05-17T11:03:19;17.40;38.20
13332;DHT22;6735;51.456;12.626;2023-05-17T11:08:33;18.00;36.00
13332;DHT22;6735;51.456;12.626;2023-05-17T11:11:13;18.20;36.00
13332;DHT22;6735;51.456;12.626;2023-05-17T11:13:53;18.10;36.40
13332;DHT22;6735;51.456;12.626;2023-05-17T11:16:31;17.80;36.90
13332;DHT22;6735;51.456;12.626;2023-05-17T11:19:09;17.80;36.90
13332;DHT22;6735;51.456;12.626;2023-05-17T11:21:35;18.00;36.00
13332;DHT22;6735;51.456;12.626;2023-05-17T11:24:09;18.10;36.50
13332;DHT22;6735;51.456;12.626;2023-05-17T11:26:37;18.50;36.10
13332;DHT22;6735;51.456;12.626;2023-05-17T11:29:06;18.60;35.20
13332;DHT22;6735;51.456;12.626;2023-05-17T11:31:36;18.20;35.60
13332;DHT22;6735;51.456;12.626;2023-05-17T11:34:06;18.40;35.00
13332;DHT22;6735;51.456;12.626;2023-05-17T11:36:51;17.90;35.80
13332;DHT22;6735;51.456;12.626;2023-05-17T11:39:19;17.70;35.80
13332;DHT22;6735;51.456;12.626;2023-05-17T11:41:50;17.90;35.80
13332;DHT22;6735;51.456;12.626;2023-05-17T11:44:39;17.80;35.70
13332;DHT22;6735;51.456;12.626;2023-05-17T11:47:06;17.70;35.60
13332;DHT22;6735;51.456;12.626;2023-05-17T11:49:37;18.00;35.80
13332;DHT22;6735;51.456;12.626;2023-05-17T11:52:06;18.10;35.70
13332;DHT22;6735;51.456;12.626;2023-05-17T11:54:33;17.80;36.00
13332;DHT22;6735;51.456;12.626;2023-05-17T11:56:59;17.50;36.20
13332;DHT22;6735;51.456;12.626;2023-05-17T11:59:26;17.60;36.00
13332;DHT22;6735;51.456;12.626;2023-05-17T12:01:51;17.90;35.40
13332;DHT22;6735;51.456;12.626;2023-05-17T12:04:25;17.90;35.30
13332;DHT22;6735;51.456;12.626;2023-05-17T12:06:51;18.10;34.60
13332;DHT22;6735;51.456;12.626;2023-05-17T12:09:17;17.80;35.10
13332;DHT22;6735;51.456;12.626;2023-05-17T12:11:43;17.80;35.30
13332;DHT22;6735;51.456;12.626;2023-05-17T12:14:09;17.80;35.70
13332;DHT22;6735;51.456;12.626;2023-05-17T12:16:40;18.00;35.50
13332;DHT22;6735;51.456;12.626;2023-05-17T12:19:19;18.20;35.00
13332;DHT22;6735;51.456;12.626;2023-05-17T12:21:45;18.10;34.30
13332;DHT22;6735;51.456;12.626;2023-05-17T12:24:11;17.90;34.50
13332;DHT22;6735;51.456;12.626;2023-05-17T12:26:44;17.90;34.10
13332;DHT22;6735;51.456;12.626;2023-05-17T12:29:11;17.80;34.90
13332;DHT22;6735;51.456;12.626;2023-05-17T12:31:47;17.90;34.90
13332;DHT22;6735;51.456;12.626;2023-05-17T12:34:14;18.20;34.30
13332;DHT22;6735;51.456;12.626;2023-05-17T12:36:42;18.30;34.60
13332;DHT22;6735;51.456;12.626;2023-05-17T12:39:10;18.40;34.40
13332;DHT22;6735;51.456;12.626;2023-05-17T12:41:36;17.80;35.40
13332;DHT22;6735;51.456;12.626;2023-05-17T12:44:08;17.80;35.40
13332;DHT22;6735;51.456;12.626;2023-05-17T12:46:34;17.90;34.40
13332;DHT22;6735;51.456;12.626;2023-05-17T12:49:07;17.80;35.20
13332;DHT22;6735;51.456;12.626;2023-05-17T12:51:43;18.10;34.80
13332;DHT22;6735;51.456;12.626;2023-05-17T12:54:10;18.50;33.90
13332;DHT22;6735;51.456;12.626;2023-05-17T12:56:36;18.60;34.20
13332;DHT22;6735;51.456;12.626;2023-05-17T12:59:14;18.60;34.10
13332;DHT22;6735;51.456;12.626;2023-05-17T13:01:42;18.70;33.80
13332;DHT22;6735;51.456;12.626;2023-05-17T13:04:08;18.60;33.60
13332;DHT22;6735;51.456;12.626;2023-05-17T13:06:51;18.30;33.70
13332;DHT22;6735;51.456;12.626;2023-05-17T13:09:19;18.40;33.10
13332;DHT22;6735;51.456;12.626;2023-05-17T13:11:54;18.30;33.90
13332;DHT22;6735;51.456;12.626;2023-05-17T13:14:34;18.50;33.40
13332;DHT22;6735;51.456;12.626;2023-05-17T13:17:01;18.80;33.20
13332;DHT22;6735;51.456;12.626;2023-05-17T13:19:27;18.90;33.30
13332;DHT22;6735;51.456;12.626;2023-05-17T13:21:52;18.90;32.70
13332;DHT22;6735;51.456;12.626;2023-05-17T13:24:18;18.50;33.40
13332;DHT22;6735;51.456;12.626;2023-05-17T13:26:43;18.70;33.00
13332;DHT22;6735;51.456;12.626;2023-05-17T13:29:09;18.60;33.10
13332;DHT22;6735;51.456;12.626;2023-05-17T13:31:34;18.70;33.30
13332;DHT22;6735;51.456;12.626;2023-05-17T13:34:00;18.80;32.80
13332;DHT22;6735;51.456;12.626;2023-05-17T13:36:25;18.50;33.50
13332;DHT22;6735;51.456;12.626;2023-05-17T13:38:51;18.60;33.50
13332;DHT22;6735;51.456;12.626;2023-05-17T13:41:16;18.40;32.90
13332;DHT22;6735;51.456;12.626;2023-05-17T13:43:42;18.40;32.90
13332;DHT22;6735;51.456;12.626;2023-05-17T13:46:08;18.60;32.80
13332;DHT22;6735;51.456;12.626;2023-05-17T13:48:33;18.40;33.10
13332;DHT22;6735;51.456;12.626;2023-05-17T13:50:59;18.70;32.90
13332;DHT22;6735;51.456;12.626;2023-05-17T13:53:25;18.70;32.80
13332;DHT22;6735;51.456;12.626;2023-05-17T13:55:50;18.80;32.90
13332;DHT22;6735;51.456;12.626;2023-05-17T13:58:16;18.80;32.80
13332;DHT22;6735;51.456;12.626;2023-05-17T14:00:42;19.00;32.80
13332;DHT22;6735;51.456;12.626;2023-05-17T14:03:10;18.90;33.00
13332;DHT22;6735;51.456;12.626;2023-05-17T14:05:36;18.90;32.90
13332;DHT22;6735;51.456;12.626;2023-05-17T14:08:02;19.00;32.50
13332;DHT22;6735;51.456;12.626;2023-05-17T14:10:28;18.90;32.50
13332;DHT22;6735;51.456;12.626;2023-05-17T14:12:54;18.70;32.60
13332;DHT22;6735;51.456;12.626;2023-05-17T14:15:19;18.80;32.50
13332;DHT22;6735;51.456;12.626;2023-05-17T14:17:45;18.70;32.90
13332;DHT22;6735;51.456;12.626;2023-05-17T14:20:11;18.70;33.00
13332;DHT22;6735;51.456;12.626;2023-05-17T14:22:36;18.90;33.10
13332;DHT22;6735;51.456;12.626;2023-05-17T14:25:02;18.80;32.90
13332;DHT22;6735;51.456;12.626;2023-05-17T14:27:28;18.70;32.90
13332;DHT22;6735;51.456;12.626;2023-05-17T14:29:54;18.70;32.80
13332;DHT22;6735;51.456;12.626;2023-05-17T14:32:20;18.50;32.90
13332;DHT22;6735;51.456;12.626;2023-05-17T14:34:45;18.60;32.90
13332;DHT22;6735;51.456;12.626;2023-05-17T14:37:10;18.90;32.80
13332;DHT22;6735;51.456;12.626;2023-05-17T14:39:36;18.90;32.60
13332;DHT22;6735;51.456;12.626;2023-05-17T14:42:01;19.00;32.60
13332;DHT22;6735;51.456;12.626;2023-05-17T14:44:27;18.90;32.50
13332;DHT22;6735;51.456;12.626;2023-05-17T14:46:52;18.70;32.80
13332;DHT22;6735;51.456;12.626;2023-05-17T14:49:18;18.60;32.60
13332;DHT22;6735;51.456;12.626;2023-05-17T14:51:43;18.50;32.80
13332;DHT22;6735;51.456;12.626;2023-05-17T14:54:09;18.70;32.50
13332;DHT22;6735;51.456;12.626;2023-05-17T14:56:35;18.60;32.80
13332;DHT22;6735;51.456;12.626;2023-05-17T14:59:01;18.50;33.00
13332;DHT22;6735;51.456;12.626;2023-05-17T15:01:26;18.50;32.50
13332;DHT22;6735;51.456;12.626;2023-05-17T15:03:52;18.30;32.80
13332;DHT22;6735;51.456;12.626;2023-05-17T15:06:18;18.20;32.80
13332;DHT22;6735;51.456;12.626;2023-05-17T15:08:49;18.20;32.60
13332;DHT22;6735;51.456;12.626;2023-05-17T15:11:14;18.20;32.50
13332;DHT22;6735;51.456;12.626;2023-05-17T15:13:40;18.20;32.60
13332;DHT22;6735;51.456;12.626;2023-05-17T15:16:06;18.30;32.80
13332;DHT22;6735;51.456;12.626;2023-05-17T15:18:32;18.30;32.60
13332;DHT22;6735;51.456;12.626;2023-05-17T15:20:58;18.30;32.70
13332;DHT22;6735;51.456;12.626;2023-05-17T15:23:23;18.20;33.10
13332;DHT22;6735;51.456;12.626;2023-05-17T15:25:49;18.20;33.30
13332;DHT22;6735;51.456;12.626;2023-05-17T15:28:14;18.10;33.50
13332;DHT22;6735;51.456;12.626;2023-05-17T15:30:40;18.10;33.70
13332;DHT22;6735;51.456;12.626;2023-05-17T15:33:07;18.10;33.80
13332;DHT22;6735;51.456;12.626;2023-05-17T15:35:32;17.90;33.70
13332;DHT22;6735;51.456;12.626;2023-05-17T15:37:58;17.80;33.70
13332;DHT22;6735;51.456;12.626;2023-05-17T15:40:24;17.80;34.00
13332;DHT22;6735;51.456;12.626;2023-05-17T15:42:49;17.70;33.80